Time;durP1;ratioP1;P1;durP2;ratioP2;P2;SDS_P1;SDS_P2;PMS_P1;PMS_P2;Temp;Humidity;BMP_temperature;BMP_pressure;BME280_temperature;BME280_humidity;BME280_pressure;Samples;Min_cycle;Max_cycle;Signal;HPM_P1;HPM_P2
2023/09/12 00:00:47;;;;;;;;;;;27.20;99.90;;;;;;5035565;28;19993;-64
2023/09/12 00:03:13;;;;;;;;;;;27.20;99.90;;;;;;5035351;28;19905;-66
2023/09/12 00:05:40;;;;;;;;;;;27.20;99.90;;;;;;5035497;28;19916;-66
2023/09/12 00:08:06;;;;;;;;;;;27.20;99.90;;;;;;5047120;28;19911;-65
2023/09/12 00:10:33;;;;;;;;;;;27.30;99.90;;;;;;5037201;28;20023;-66
2023/09/12 00:13:00;;;;;;;;;;;27.30;99.90;;;;;;5055055;28;19915;-66
2023/09/12 00:15:27;;;;;;;;;;;27.30;99.90;;;;;;5042842;28;19956;-66
2023/09/12 00:17:53;;;;;;;;;;;27.30;99.90;;;;;;5037437;28;19912;-66
2023/09/12 00:20:19;;;;;;;;;;;27.40;99.90;;;;;;5044517;28;20344;-66
2023/09/12 00:22:46;;;;;;;;;;;27.40;99.90;;;;;;5035339;28;19985;-66
2023/09/12 00:25:12;;;;;;;;;;;27.40;99.90;;;;;;5035152;28;19909;-67
2023/09/12 00:27:38;;;;;;;;;;;27.40;99.90;;;;;;5035193;28;20405;-67
2023/09/12 00:30:04;;;;;;;;;;;27.40;99.90;;;;;;5035398;28;20286;-65
2023/09/12 00:32:31;;;;;;;;;;;27.50;99.90;;;;;;5034854;28;19962;-67
2023/09/12 00:34:57;;;;;;;;;;;27.50;99.90;;;;;;5034789;28;20248;-66
2023/09/12 00:37:23;;;;;;;;;;;27.50;99.90;;;;;;5034816;28;19913;-65
2023/09/12 00:39:49;;;;;;;;;;;27.50;99.90;;;;;;5034933;28;19905;-66
2023/09/12 00:42:15;;;;;;;;;;;27.50;99.90;;;;;;5035106;28;19905;-67
2023/09/12 00:44:41;;;;;;;;;;;27.60;99.90;;;;;;5034836;28;19905;-65
2023/09/12 00:47:08;;;;;;;;;;;27.60;99.90;;;;;;5034854;28;20279;-65
2023/09/12 00:49:34;;;;;;;;;;;27.60;99.90;;;;;;5034528;28;19904;-66
2023/09/12 00:52:01;;;;;;;;;;;27.60;99.90;;;;;;5034581;28;20311;-66
2023/09/12 00:54:28;;;;;;;;;;;27.60;99.90;;;;;;5034669;28;19955;-66
2023/09/12 00:56:54;;;;;;;;;;;27.60;99.90;;;;;;5034461;28;20371;-64
2023/09/12 00:59:20;;;;;;;;;;;27.60;99.90;;;;;;5034472;28;20144;-65
2023/09/12 01:01:47;;;;;;;;;;;27.60;99.90;;;;;;5034322;28;19955;-65
2023/09/12 01:04:13;;;;;;;;;;;27.60;99.90;;;;;;5034359;28;19909;-66
2023/09/12 01:06:40;;;;;;;;;;;27.60;99.90;;;;;;5034267;28;19905;-66
2023/09/12 01:09:06;;;;;;;;;;;27.60;99.90;;;;;;5034411;28;19909;-65
2023/09/12 01:11:33;;;;;;;;;;;27.60;99.90;;;;;;5034238;28;19996;-65
2023/09/12 01:14:00;;;;;;;;;;;27.70;99.90;;;;;;5034003;28;19916;-66
2023/09/12 01:16:26;;;;;;;;;;;27.70;99.90;;;;;;5034005;28;20000;-66
2023/09/12 01:18:52;;;;;;;;;;;27.80;99.90;;;;;;5034293;28;19912;-65
2023/09/12 01:21:24;;;;;;;;;;;27.80;99.90;;;;;;5033946;28;19909;-65
2023/09/12 01:24:14;;;;;;;;;;;27.80;99.90;;;;;;5034235;28;19995;-65
2023/09/12 01:26:56;;;;;;;;;;;27.90;99.90;;;;;;5033868;28;19919;-63
2023/09/12 01:29:22;;;;;;;;;;;27.90;99.90;;;;;;5033919;28;19905;-65
2023/09/12 01:31:49;;;;;;;;;;;28.00;99.90;;;;;;5033730;28;19940;-67
2023/09/12 01:34:15;;;;;;;;;;;28.00;99.90;;;;;;5034067;28;19905;-66
2023/09/12 01:36:41;;;;;;;;;;;28.10;99.90;;;;;;5033726;28;19996;-65
2023/09/12 01:39:08;;;;;;;;;;;28.20;99.90;;;;;;5059716;28;20387;-64
2023/09/12 01:41:35;;;;;;;;;;;28.30;99.90;;;;;;5073459;28;19908;-65
2023/09/12 01:44:02;;;;;;;;;;;28.30;99.90;;;;;;5073628;28;19911;-65
2023/09/12 01:46:31;;;;;;;;;;;28.30;99.90;;;;;;5073392;28;19920;-64
2023/09/12 01:48:57;;;;;;;;;;;28.30;99.90;;;;;;5073548;28;19911;-66
2023/09/12 01:51:25;;;;;;;;;;;28.40;99.90;;;;;;5073503;28;19939;-65
2023/09/12 01:53:51;;;;;;;;;;;28.40;99.90;;;;;;5073475;28;20438;-66
2023/09/12 01:56:18;;;;;;;;;;;28.60;99.90;;;;;;5073535;28;19908;-66
2023/09/12 01:58:44;;;;;;;;;;;28.70;99.90;;;;;;5073409;28;19958;-64
2023/09/12 02:01:11;;;;;;;;;;;28.90;99.90;;;;;;5073107;28;20274;-66
2023/09/12 02:03:37;;;;;;;;;;;29.00;99.90;;;;;;5073411;28;20270;-66
2023/09/12 02:06:03;;;;;;;;;;;29.20;99.90;;;;;;5073276;28;20350;-65
2023/09/12 02:08:29;;;;;;;;;;;29.40;99.90;;;;;;5073082;28;19908;-65
2023/09/12 02:10:55;;;;;;;;;;;29.50;99.90;;;;;;5073130;28;19913;-66
2023/09/12 02:13:21;;;;;;;;;;;29.60;99.90;;;;;;5073085;28;19913;-68
2023/09/12 02:15:48;;;;;;;;;;;29.70;99.90;;;;;;5073154;28;20274;-66
2023/09/12 02:18:14;;;;;;;;;;;29.80;99.90;;;;;;5076985;28;19951;-66
2023/09/12 02:20:41;;;;;;;;;;;29.90;99.90;;;;;;5077263;28;19908;-65
2023/09/12 02:23:07;;;;;;;;;;;29.90;99.90;;;;;;5077077;28;20232;-65
2023/09/12 02:25:33;;;;;;;;;;;30.00;99.90;;;;;;5077203;28;19912;-65
2023/09/12 02:27:59;;;;;;;;;;;30.10;99.90;;;;;;5077084;28;19908;-66
2023/09/12 02:30:26;;;;;;;;;;;30.20;99.90;;;;;;5076847;28;19908;-66
2023/09/12 02:32:52;;;;;;;;;;;30.40;99.90;;;;;;5073981;28;19944;-66
2023/09/12 02:35:18;;;;;;;;;;;30.40;99.90;;;;;;5077348;28;19919;-65
2023/09/12 02:37:44;;;;;;;;;;;30.40;99.90;;;;;;5077441;28;19908;-64
2023/09/12 02:40:11;;;;;;;;;;;30.50;99.90;;;;;;5076969;28;19909;-63
2023/09/12 02:42:37;;;;;;;;;;;30.50;99.90;;;;;;5076981;28;19908;-68
2023/09/12 02:45:05;;;;;;;52.90;34.00;;;30.50;99.90;;;;;;5076150;28;19909;-65
2023/09/12 02:47:31;;;;;;;52.20;35.20;;;30.50;99.90;;;;;;5075691;28;20025;-65
2023/09/12 02:49:58;;;;;;;49.22;33.90;;;30.60;99.90;;;;;;5075955;28;20036;-65
2023/09/12 02:52:24;;;;;;;44.78;31.85;;;30.70;99.90;;;;;;5075702;28;20406;-67
2023/09/12 02:54:51;;;;;;;46.60;32.63;;;30.80;99.90;;;;;;5073574;28;20020;-65
2023/09/12 02:57:17;;;;;;;39.33;24.27;;;30.80;99.90;;;;;;5074124;28;20430;-67
2023/09/12 02:59:44;;;;;;;;;;;30.70;99.90;;;;;;5074878;28;20021;-66
2023/09/12 03:02:10;;;;;;;;;;;30.70;99.90;;;;;;5073915;28;19904;-66
2023/09/12 03:04:37;;;;;;;33.10;22.55;;;30.70;99.90;;;;;;5074502;28;19912;-66
2023/09/12 03:07:03;;;;;;;;;;;30.70;99.90;;;;;;5074690;28;20512;-65
2023/09/12 03:09:29;;;;;;;;;;;30.60;99.90;;;;;;5076296;28;19911;-65
2023/09/12 03:11:55;;;;;;;;;;;30.70;99.90;;;;;;5074821;28;19931;-66
2023/09/12 03:14:21;;;;;;;;;;;30.80;99.90;;;;;;5076238;28;19904;-65
2023/09/12 03:16:47;;;;;;;;;;;30.90;99.90;;;;;;5076187;28;19904;-65
2023/09/12 03:19:14;;;;;;;;;;;30.90;99.90;;;;;;5075594;28;19905;-65
2023/09/12 03:21:40;;;;;;;;;;;30.90;99.90;;;;;;5075807;28;19912;-66
2023/09/12 03:24:06;;;;;;;;;;;30.90;99.90;;;;;;5075941;28;19950;-66
2023/09/12 03:26:33;;;;;;;;;;;30.90;99.90;;;;;;5076003;28;19908;-66
2023/09/12 03:28:59;;;;;;;;;;;30.90;99.90;;;;;;5074957;28;19905;-67
2023/09/12 03:31:26;;;;;;;;;;;31.00;99.90;;;;;;5076006;28;19913;-68
2023/09/12 03:33:52;;;;;;;;;;;31.10;99.90;;;;;;5076073;28;19908;-69
2023/09/12 03:36:18;;;;;;;;;;;31.30;99.90;;;;;;5060415;28;19960;-68
2023/09/12 03:38:44;;;;;;;;;;;31.40;99.90;;;;;;5044703;28;19905;-67
2023/09/12 03:41:10;;;;;;;;;;;31.60;99.90;;;;;;5062039;28;19905;-67
2023/09/12 03:43:36;;;;;;;;;;;31.70;99.90;;;;;;5069922;28;20048;-68
2023/09/12 03:46:03;;;;;;;;;;;31.60;99.90;;;;;;5074887;28;19995;-70
2023/09/12 03:48:33;;;;;;;;;;;31.50;99.90;;;;;;5074583;28;19908;-69
2023/09/12 03:51:00;;;;;;;;;;;31.50;99.90;;;;;;5070744;28;19923;-70
2023/09/12 03:53:27;;;;;;;;;;;31.50;99.90;;;;;;5070741;28;20011;-71
2023/09/12 03:55:54;;;;;;;;;;;31.60;99.90;;;;;;5074460;28;19904;-70
2023/09/12 03:58:20;;;;;;;;;;;31.60;99.90;;;;;;5074763;28;20147;-69
2023/09/12 04:00:46;;;;;;;;;;;31.80;99.90;;;;;;5074513;28;19904;-70
2023/09/12 04:03:12;;;;;;;;;;;32.00;99.90;;;;;;5074133;28;19904;-66
2023/09/12 04:05:38;;;;;;;;;;;32.00;99.90;;;;;;5074544;28;20382;-69
2023/09/12 04:08:04;;;;;;;;;;;32.00;99.90;;;;;;5074782;28;19947;-69
2023/09/12 04:10:32;;;;;;;;;;;32.00;99.90;;;;;;5074441;28;20358;-69
2023/09/12 04:12:58;;;;;;;;;;;32.00;99.90;;;;;;5074492;28;19936;-69
2023/09/12 04:15:24;;;;;;;;;;;32.00;99.90;;;;;;5074636;28;19904;-70
2023/09/12 04:17:51;;;;;;;;;;;32.10;99.90;;;;;;5074806;28;20351;-68
2023/09/12 04:20:17;;;;;;;;;;;32.20;99.90;;;;;;5074639;28;19991;-69
2023/09/12 04:22:43;;;;;;;;;;;32.20;99.90;;;;;;5074570;28;19908;-69
2023/09/12 04:25:09;;;;;;;;;;;32.20;99.90;;;;;;5074464;28;20302;-70
2023/09/12 04:27:35;;;;;;;;;;;32.10;99.90;;;;;;5071659;28;20050;-71
2023/09/12 04:30:02;;;;;;;;;;;32.10;99.90;;;;;;5074347;28;19929;-65
2023/09/12 04:32:29;;;;;;;;;;;32.10;99.90;;;;;;5074214;28;19908;-65
2023/09/12 04:34:55;;;;;;;;;;;32.10;99.90;;;;;;5074152;28;19904;-69
2023/09/12 04:37:21;;;;;;;;;;;32.10;99.90;;;;;;5074131;28;19913;-71
2023/09/12 04:39:48;;;;;;;;;;;32.10;99.90;;;;;;5073789;28;19951;-70
2023/09/12 04:42:14;;;;;;;;;;;32.30;99.90;;;;;;5073893;28;20449;-71
2023/09/12 04:44:41;;;;;;;;;;;32.50;99.90;;;;;;5073948;28;19983;-71
2023/09/12 04:47:07;;;;;;;;;;;32.50;99.90;;;;;;5071785;28;19953;-74
2023/09/12 04:49:34;;;;;;;;;;;32.70;99.90;;;;;;5073807;28;20320;-70
2023/09/12 04:52:00;;;;;;;;;;;32.70;99.90;;;;;;5073751;28;19912;-70
2023/09/12 04:54:26;;;;;;;;;;;32.70;99.90;;;;;;5074015;28;19904;-70
2023/09/12 04:56:53;;;;;;;;;;;32.70;99.90;;;;;;5073694;28;19999;-70
2023/09/12 04:59:19;;;;;;;;;;;32.70;99.90;;;;;;5073725;28;19969;-69
2023/09/12 05:01:45;;;;;;;;;;;32.80;99.90;;;;;;5073647;28;19909;-68
2023/09/12 05:04:11;;;;;;;;;;;32.90;99.90;;;;;;5073660;28;19962;-65
2023/09/12 05:06:37;;;;;;;;;;;33.10;99.90;;;;;;5073761;28;19904;-67
2023/09/12 05:09:05;;;;;;;;;;;33.20;99.90;;;;;;5073771;28;19940;-67
2023/09/12 05:11:31;;;;;;;;;;;33.20;99.90;;;;;;5073769;28;19920;-68
2023/09/12 05:13:57;;;;;;;;;;;33.20;99.90;;;;;;5073567;28;19908;-70
2023/09/12 05:16:23;;;;;;;;;;;33.30;99.90;;;;;;5073502;28;19916;-67
2023/09/12 05:18:50;;;;;;;;;;;33.40;99.90;;;;;;5073406;28;19904;-68
2023/09/12 05:21:17;;;;;;;39.38;25.98;;;33.50;99.90;;;;;;5073028;28;19911;-68
2023/09/12 05:23:43;;;;;;;41.70;29.15;;;33.60;99.90;;;;;;5069365;28;20056;-67
2023/09/12 05:26:10;;;;;;;45.65;29.60;;;33.70;99.90;;;;;;5073099;28;20027;-66
2023/09/12 05:28:36;;;;;;;44.60;33.13;;;33.70;99.90;;;;;;5071100;28;20042;-67
2023/09/12 05:31:03;;;;;;;48.10;29.67;;;33.70;99.90;;;;;;5072623;28;20100;-70
2023/09/12 05:33:30;;;;;;;39.92;27.75;;;33.60;99.90;;;;;;5072782;28;20437;-68
2023/09/12 05:35:56;;;;;;;56.78;21.75;;;33.50;99.90;;;;;;5072421;28;20100;-69
2023/09/12 05:38:23;;;;;;;33.58;20.30;;;33.50;99.90;;;;;;5068795;28;20025;-68
2023/09/12 05:40:49;;;;;;;28.00;17.95;;;33.40;99.90;;;;;;5066210;28;20013;-67
2023/09/12 05:43:17;;;;;;;24.55;15.18;;;33.40;99.90;;;;;;5072240;28;20086;-69
2023/09/12 05:45:44;;;;;;;23.77;14.57;;;33.40;99.90;;;;;;5072866;28;20052;-71
2023/09/12 05:48:10;;;;;;;25.17;11.35;;;33.40;99.90;;;;;;5072692;28;20492;-71
2023/09/12 05:50:40;;;;;;;27.08;14.95;;;33.30;99.90;;;;;;5071891;28;20032;-69
2023/09/12 05:53:08;;;;;;;12.38;8.57;;;33.30;99.90;;;;;;5072227;28;20041;-65
2023/09/12 05:55:34;;;;;;;10.52;8.68;;;33.20;99.90;;;;;;5072402;28;20431;-66
2023/09/12 05:58:03;;;;;;;13.85;8.88;;;33.30;99.90;;;;;;5072649;28;20048;-67
2023/09/12 06:00:30;;;;;;;12.00;9.52;;;33.40;99.90;;;;;;5072264;28;20021;-66
2023/09/12 06:02:56;;;;;;;18.42;11.80;;;33.40;99.90;;;;;;5072148;28;20366;-66
2023/09/12 06:05:23;;;;;;;22.63;14.00;;;33.50;99.90;;;;;;5072668;28;20090;-66
2023/09/12 06:07:49;;;;;;;16.30;11.75;;;33.50;99.90;;;;;;5072690;28;20021;-66
2023/09/12 06:10:16;;;;;;;22.15;12.15;;;33.60;99.50;;;;;;5072856;28;20017;-64
2023/09/12 06:12:43;;;;;;;24.05;16.10;;;33.60;99.50;;;;;;5072784;28;20037;-64
2023/09/12 06:15:09;;;;;;;25.98;16.85;;;33.60;98.90;;;;;;5072726;28;20016;-64
2023/09/12 06:17:36;;;;;;;17.88;13.27;;;33.70;98.70;;;;;;5072595;28;20021;-67
2023/09/12 06:20:06;;;;;;;20.95;13.80;;;33.80;98.70;;;;;;5071902;28;20029;-67
2023/09/12 06:22:33;;;;;;;35.45;24.52;;;33.90;99.20;;;;;;5072093;28;20103;-67
2023/09/12 06:25:00;;;;;;;39.72;27.08;;;34.00;99.00;;;;;;5072294;28;20020;-69
2023/09/12 06:27:26;;;;;;;39.63;28.50;;;34.00;98.50;;;;;;5072803;28;20017;-69
2023/09/12 06:29:53;;;;;;;39.17;25.85;;;34.10;98.20;;;;;;5072858;28;20077;-68
2023/09/12 06:32:19;;;;;;;37.47;27.42;;;34.10;98.40;;;;;;5062302;28;20494;-67
2023/09/12 06:34:47;;;;;;;52.67;38.42;;;34.00;98.20;;;;;;5068991;28;20031;-65
2023/09/12 06:37:18;;;;;;;47.33;34.42;;;33.90;98.30;;;;;;5067207;28;20086;-68
2023/09/12 06:39:44;;;;;;;57.20;39.43;;;33.80;98.00;;;;;;5071789;28;20052;-67
2023/09/12 06:42:11;;;;;;;68.18;45.88;;;33.70;98.30;;;;;;5072056;28;20017;-67
2023/09/12 06:44:38;;;;;;;63.10;48.60;;;33.70;98.10;;;;;;5072161;28;20024;-68
2023/09/12 06:47:05;;;;;;;78.93;50.30;;;33.80;98.30;;;;;;5071696;28;20036;-67
2023/09/12 06:49:36;;;;;;;62.33;44.92;;;33.80;98.10;;;;;;5071767;28;20103;-67
2023/09/12 06:52:03;;;;;;;59.72;40.78;;;33.90;98.00;;;;;;5071283;28;20044;-67
2023/09/12 06:54:30;;;;;;;61.88;45.08;;;34.00;98.00;;;;;;5071544;28;20020;-66
2023/09/12 06:56:56;;;;;;;62.63;44.80;;;34.00;97.80;;;;;;5071468;28;20043;-68
2023/09/12 06:59:23;;;;;;;61.30;42.20;;;34.00;98.00;;;;;;5071748;28;20078;-66
2023/09/12 07:01:49;;;;;;;56.90;41.92;;;34.00;97.70;;;;;;5071978;28;20008;-66
2023/09/12 07:04:16;;;;;;;65.53;43.63;;;34.00;97.50;;;;;;5074859;28;20066;-66
2023/09/12 07:06:43;;;;;;;56.67;37.25;;;34.00;97.80;;;;;;5075526;28;20036;-68
2023/09/12 07:09:11;;;;;;;43.83;32.72;;;33.90;97.60;;;;;;5075433;28;20044;-66
2023/09/12 07:11:38;;;;;;;46.58;33.88;;;33.90;97.30;;;;;;5075469;28;20094;-68
2023/09/12 07:14:04;;;;;;;45.47;32.53;;;33.90;97.20;;;;;;5074567;28;20489;-67
2023/09/12 07:16:32;;;;;;;42.40;31.05;;;33.90;97.20;;;;;;5075058;28;20059;-69
2023/09/12 07:18:59;;;;;;;46.10;32.83;;;33.90;97.20;;;;;;5075705;28;20020;-65
2023/09/12 07:21:25;;;;;;;38.08;27.60;;;33.80;97.60;;;;;;5069772;28;20020;-66
2023/09/12 07:23:52;;;;;;;46.88;27.02;;;33.80;98.30;;;;;;5075381;28;20419;-64
2023/09/12 07:26:18;;;;;;;41.10;26.77;;;33.80;98.40;;;;;;5074959;28;20502;-64
2023/09/12 07:28:45;;;;;;;43.40;28.90;;;33.80;98.60;;;;;;5069737;28;20032;-67
2023/09/12 07:31:12;;;;;;;48.10;33.70;;;33.80;98.60;;;;;;5075454;28;20486;-69
2023/09/12 07:33:38;;;;;;;51.25;36.95;;;33.90;98.40;;;;;;5075276;28;20019;-68
2023/09/12 07:36:05;;;;;;;57.58;39.65;;;33.90;97.80;;;;;;5069399;28;20028;-67
2023/09/12 07:38:32;;;;;;;56.65;38.65;;;34.00;97.70;;;;;;5075082;28;20048;-68
2023/09/12 07:41:00;;;;;;;61.25;38.75;;;34.20;97.70;;;;;;5075007;28;20044;-67
2023/09/12 07:43:29;;;;;;;60.40;39.85;;;34.20;97.20;;;;;;5070107;28;20124;-68
2023/09/12 07:45:57;;;;;;;57.20;41.67;;;34.20;97.10;;;;;;5071660;28;20017;-67
2023/09/12 07:48:24;;;;;;;60.15;41.08;;;34.20;97.00;;;;;;5075004;28;20028;-67
2023/09/12 07:50:51;;;;;;;64.82;44.90;;;34.10;96.90;;;;;;5075123;28;20039;-67
2023/09/12 07:53:18;;;;;;;88.22;53.40;;;34.00;97.30;;;;;;5074801;28;20127;-66
2023/09/12 07:55:50;;;;;;;85.43;57.35;;;34.00;96.90;;;;;;5074901;28;20021;-67
2023/09/12 07:58:23;;;;;;;111.82;79.88;;;33.80;97.10;;;;;;5074845;28;20450;-67
2023/09/12 08:00:50;;;;;;;109.85;76.40;;;33.80;97.00;;;;;;5070746;28;20019;-66
2023/09/12 08:03:17;;;;;;;121.20;81.80;;;33.70;97.40;;;;;;5074728;28;20027;-66
2023/09/12 08:05:44;;;;;;;114.25;86.25;;;33.70;96.90;;;;;;5074728;28;20028;-67
2023/09/12 08:08:10;;;;;;;114.38;77.88;;;33.70;96.50;;;;;;5075042;28;20048;-66
2023/09/12 08:10:37;;;;;;;77.53;52.63;;;33.60;96.00;;;;;;5074411;28;20099;-67
2023/09/12 08:13:03;;;;;;;43.97;32.60;;;33.60;95.30;;;;;;5074527;28;20060;-67
2023/09/12 08:15:30;;;;;;;37.40;25.35;;;33.50;95.00;;;;;;5073817;28;20413;-66
2023/09/12 08:17:57;;;;;;;33.22;22.45;;;33.50;94.90;;;;;;5074318;28;20020;-68
2023/09/12 08:20:23;;;;;;;32.45;21.45;;;33.50;94.60;;;;;;5074577;28;20021;-68
2023/09/12 08:22:50;;;;;;;37.75;29.35;;;33.50;94.60;;;;;;5074572;28;20020;-68
2023/09/12 08:25:16;;;;;;;46.53;29.55;;;33.50;94.30;;;;;;5074341;28;20021;-66
2023/09/12 08:27:43;;;;;;;37.08;26.77;;;33.50;94.20;;;;;;5074241;28;20075;-68
2023/09/12 08:30:12;;;;;;;49.97;33.42;;;33.60;94.30;;;;;;5074188;28;20470;-67
2023/09/12 08:32:39;;;;;;;54.63;38.45;;;33.60;94.40;;;;;;5074023;28;20035;-67
2023/09/12 08:35:07;;;;;;;56.75;38.60;;;33.60;94.40;;;;;;5068713;28;20025;-72
2023/09/12 08:37:34;;;;;;;39.10;27.35;;;33.70;94.20;;;;;;5074079;28;20020;-68
2023/09/12 08:40:01;;;;;;;37.45;28.38;;;33.60;94.10;;;;;;5070440;28;20024;-66
2023/09/12 08:42:29;;;;;;;50.67;30.90;;;33.70;94.70;;;;;;5039307;28;20025;-69
2023/09/12 08:44:55;;;;;;;48.03;36.50;;;33.70;95.00;;;;;;5033284;28;20087;-68
2023/09/12 08:47:25;;;;;;;67.82;46.65;;;33.70;95.50;;;;;;5033597;28;20021;-69
2023/09/12 08:49:51;;;;;;;59.08;39.17;;;33.70;95.60;;;;;;5034130;28;20391;-68
2023/09/12 08:52:18;;;;;;;53.33;31.23;;;33.70;95.40;;;;;;5036463;28;20053;-69
2023/09/12 08:54:44;;;;;;;42.05;31.98;;;33.70;95.20;;;;;;5049016;28;20021;-66
2023/09/12 08:57:13;;;;;;;49.05;37.25;;;33.70;95.50;;;;;;5053503;28;20037;-68
2023/09/12 08:59:41;;;;;;;73.22;49.13;;;33.70;95.50;;;;;;5048572;28;20111;-67
2023/09/12 09:02:10;;;;;;;94.60;64.97;;;33.70;95.20;;;;;;5041842;28;20025;-68
2023/09/12 09:04:39;;;;;;;91.57;65.25;;;33.70;95.10;;;;;;5033609;28;20508;-68
2023/09/12 09:07:06;;;;;;;84.43;58.33;;;33.70;94.90;;;;;;5034193;28;20033;-67
2023/09/12 09:09:33;;;;;;;82.63;57.78;;;33.60;95.00;;;;;;5033700;28;20068;-68
2023/09/12 09:12:00;;;;;;;76.28;53.90;;;33.70;95.00;;;;;;5033861;28;20021;-67
2023/09/12 09:14:26;;;;;;;77.60;56.10;;;33.60;94.60;;;;;;5033960;28;20469;-68
2023/09/12 09:16:53;;;;;;;70.45;52.90;;;33.50;94.80;;;;;;5033756;28;20021;-67
2023/09/12 09:19:19;;;;;;;61.60;44.70;;;33.50;94.70;;;;;;5059868;28;20035;-66
2023/09/12 09:21:46;;;;;;;55.03;40.80;;;33.50;94.50;;;;;;5073115;28;20055;-66
2023/09/12 09:24:17;;;;;;;84.40;55.42;;;33.50;94.70;;;;;;5073062;28;20021;-65
2023/09/12 09:26:48;;;;;;;98.03;60.95;;;33.50;94.80;;;;;;5072519;28;20028;-67
2023/09/12 09:29:19;;;;;;;81.90;56.47;;;33.40;94.60;;;;;;5073508;28;20025;-69
2023/09/12 09:31:50;;;;;;;94.20;64.43;;;33.40;95.00;;;;;;5073301;28;20033;-66
2023/09/12 09:34:19;;;;;;;91.83;65.77;;;33.30;95.00;;;;;;5073384;28;20027;-69
2023/09/12 09:36:51;;;;;;;107.80;73.50;;;33.30;95.40;;;;;;5073339;28;20435;-71
2023/09/12 09:39:22;;;;;;;88.90;62.75;;;33.30;95.60;;;;;;5064364;28;20492;-67
2023/09/12 09:41:51;;;;;;;109.32;70.07;;;33.30;96.00;;;;;;5041151;28;20096;-68
2023/09/12 09:44:18;;;;;;;129.82;84.68;;;33.30;96.20;;;;;;5051710;28;20024;-66
2023/09/12 09:46:45;;;;;;;150.52;94.03;;;33.20;96.10;;;;;;5047974;28;20379;-65
2023/09/12 09:49:15;;;;;;;134.43;89.20;;;33.20;95.90;;;;;;5041855;28;20018;-65
2023/09/12 09:51:45;;;;;;;268.55;161.88;;;33.20;95.80;;;;;;5041781;28;20025;-65
2023/09/12 09:54:13;;;;;;;185.90;111.45;;;33.20;95.80;;;;;;5034067;28;20033;-65
2023/09/12 09:56:50;;;;;;;458.42;262.67;;;33.10;95.70;;;;;;5071300;28;20012;-67
2023/09/12 09:59:19;;;;;;;146.10;94.95;;;33.10;95.60;;;;;;5068621;28;20020;-66
2023/09/12 10:01:48;;;;;;;115.35;78.30;;;33.00;95.10;;;;;;5071758;28;20020;-66
2023/09/12 10:04:15;;;;;;;128.00;82.72;;;33.00;95.30;;;;;;5071693;28;20016;-66
2023/09/12 10:06:46;;;;;;;209.20;129.48;;;33.00;95.80;;;;;;5071736;28;20035;-65
2023/09/12 10:09:14;;;;;;;158.33;99.63;;;33.00;96.20;;;;;;5071423;28;20024;-66
2023/09/12 10:11:43;;;;;;;177.40;113.75;;;32.90;95.90;;;;;;5071773;28;20021;-65
2023/09/12 10:14:09;;;;;;;247.30;149.18;;;32.90;96.00;;;;;;5067860;28;20017;-64
2023/09/12 10:16:47;;;;;;;152.65;95.97;;;32.80;96.30;;;;;;5069463;28;20020;-67
2023/09/12 10:19:20;;;;;;;140.95;87.07;;;32.80;96.20;;;;;;5036613;28;20229;-66
2023/09/12 10:22:23;;;;;;;109.75;71.03;;;32.80;96.50;;;;;;5033178;28;20017;-66
2023/09/12 10:24:50;;;;;;;157.38;97.40;;;32.70;96.30;;;;;;5032910;28;20514;-67
2023/09/12 10:27:19;;;;;;;165.43;99.03;;;32.70;96.70;;;;;;5032994;28;20026;-67
2023/09/12 10:29:47;;;;;;;161.20;98.82;;;32.70;96.80;;;;;;5032719;28;20049;-67
2023/09/12 10:32:17;;;;;;;145.30;91.32;;;32.60;96.70;;;;;;5032516;28;20408;-66
2023/09/12 10:34:47;;;;;;;141.18;85.45;;;32.60;97.10;;;;;;5032364;28;20029;-64
2023/09/12 10:37:16;;;;;;;126.80;80.30;;;32.60;96.70;;;;;;5033069;28;20065;-66
2023/09/12 10:39:46;;;;;;;127.60;80.50;;;32.50;97.40;;;;;;5036547;28;20018;-64
2023/09/12 10:42:13;;;;;;;126.63;81.68;;;32.50;97.10;;;;;;5036392;28;20025;-65
2023/09/12 10:44:40;;;;;;;121.45;76.57;;;32.40;97.30;;;;;;5036046;28;20025;-65
2023/09/12 10:47:07;;;;;;;120.18;79.43;;;32.40;97.70;;;;;;5036176;28;20040;-65
2023/09/12 10:49:34;;;;;;;124.50;78.22;;;32.40;97.60;;;;;;5044127;28;20040;-66
2023/09/12 10:52:00;;;;;;;110.28;73.45;;;32.30;97.70;;;;;;5055720;28;20048;-65
2023/09/12 10:54:38;;;;;;;129.07;81.25;;;32.30;98.00;;;;;;5055276;28;20136;-65
2023/09/12 10:57:13;;;;;;;137.02;90.60;;;32.20;98.00;;;;;;5035835;28;20060;-65
2023/09/12 11:00:04;;;;;;;120.55;77.75;;;32.30;98.20;;;;;;5051581;28;20017;-66
2023/09/12 11:02:35;;;;;;;113.50;70.53;;;32.20;98.40;;;;;;5051869;28;20096;-65
2023/09/12 11:05:04;;;;;;;103.47;62.38;;;32.20;98.50;;;;;;5037010;28;20060;-66
2023/09/12 11:07:49;;;;;;;94.00;60.83;;;32.20;98.50;;;;;;5036066;28;20384;-66
2023/09/12 11:10:18;;;;;;;93.28;55.25;;;32.20;98.50;;;;;;5036096;28;20380;-65
2023/09/12 11:12:47;;;;;;;64.75;44.05;;;32.10;98.50;;;;;;5035537;28;20067;-67
2023/09/12 11:15:15;;;;;;;63.33;38.35;;;32.10;98.60;;;;;;5035780;28;20036;-66
2023/09/12 11:17:46;;;;;;;60.65;38.78;;;32.10;98.90;;;;;;5035793;28;20051;-66
2023/09/12 11:20:14;;;;;;;62.42;38.70;;;32.10;99.10;;;;;;5035711;28;20056;-66
2023/09/12 11:22:46;;;;;;;68.28;41.22;;;32.00;99.10;;;;;;5035982;28;20052;-67
2023/09/12 11:25:26;;;;;;;79.28;45.05;;;32.00;99.40;;;;;;5036169;28;20026;-65
2023/09/12 11:27:55;;;;;;;76.65;45.22;;;31.90;99.50;;;;;;5034992;28;20033;-67
2023/09/12 11:30:30;;;;;;;76.78;48.00;;;31.90;99.50;;;;;;5034606;28;20047;-67
2023/09/12 11:32:59;;;;;;;86.25;51.72;;;31.90;99.70;;;;;;5035616;28;20037;-67
2023/09/12 11:35:29;;;;;;;72.65;45.92;;;31.90;99.90;;;;;;5035729;28;20100;-68
2023/09/12 11:38:00;;;;;;;65.32;43.47;;;31.80;99.80;;;;;;5035622;28;20018;-68
2023/09/12 11:40:44;;;;;;;71.03;44.83;;;31.80;99.90;;;;;;5035592;28;20025;-67
2023/09/12 11:43:27;;;;;;;72.18;46.35;;;31.80;99.90;;;;;;5035537;28;20026;-67
2023/09/12 11:45:55;;;;;;;67.80;44.50;;;31.70;99.90;;;;;;5035542;28;20506;-66
2023/09/12 11:48:22;;;;;;;69.30;43.92;;;31.70;99.90;;;;;;5035243;28;20025;-66
2023/09/12 11:50:54;;;;;;;78.65;45.65;;;31.70;99.90;;;;;;5034642;28;20095;-65
2023/09/12 11:53:25;;;;;;;75.07;48.70;;;31.60;99.90;;;;;;5035001;28;20037;-66
2023/09/12 11:55:54;;;;;;;88.25;50.05;;;31.60;99.90;;;;;;5035390;28;20032;-66
2023/09/12 11:58:21;;;;;;;79.63;48.55;;;31.60;99.90;;;;;;5035270;28;20053;-67
2023/09/12 12:00:49;;;;;;;83.65;52.78;;;31.60;99.90;;;;;;5035163;28;20026;-68
2023/09/12 12:03:18;;;;;;;83.20;50.75;;;31.60;99.90;;;;;;5035323;28;20052;-67
2023/09/12 12:05:44;;;;;;;84.50;54.58;;;31.60;99.90;;;;;;5035014;28;20025;-68
2023/09/12 12:08:12;;;;;;;64.95;41.28;;;31.50;99.90;;;;;;5035241;28;20049;-66
2023/09/12 12:10:39;;;;;;;54.42;32.63;;;31.50;99.90;;;;;;5034887;28;20059;-67
2023/09/12 12:13:16;;;;;;;62.03;36.67;;;31.50;99.90;;;;;;5041531;28;20033;-66
2023/09/12 12:15:43;;;;;;;55.17;34.75;;;31.50;99.90;;;;;;5051666;28;20059;-64
2023/09/12 12:18:10;;;;;;;58.75;39.00;;;31.40;99.90;;;;;;5059436;28;20021;-63
2023/09/12 12:20:36;;;;;;;66.43;42.63;;;31.40;99.90;;;;;;5074409;28;20047;-64
2023/09/12 12:23:03;;;;;;;65.38;44.17;;;31.30;99.90;;;;;;5074331;28;20089;-64
2023/09/12 12:25:34;;;;;;;69.68;47.65;;;31.30;99.90;;;;;;5074186;28;20475;-64
2023/09/12 12:28:02;;;;;;;66.45;43.30;;;31.20;99.90;;;;;;5074246;28;20016;-64
2023/09/12 12:30:32;;;;;;;62.47;41.55;;;31.20;99.90;;;;;;5073429;28;20025;-62
2023/09/12 12:33:05;;;;;;;62.28;40.20;;;31.20;99.90;;;;;;5047453;28;20039;-65
2023/09/12 12:35:31;;;;;;;54.08;36.90;;;31.20;99.90;;;;;;5048991;28;20025;-68
2023/09/12 12:37:58;;;;;;;54.80;36.97;;;31.20;99.90;;;;;;5046623;28;20013;-68
2023/09/12 12:40:25;;;;;;;51.28;33.88;;;31.20;99.90;;;;;;5046599;28;20020;-67
2023/09/12 12:42:52;;;;;;;44.90;27.10;;;31.20;99.90;;;;;;5043078;28;20017;-66
2023/09/12 12:45:23;;;;;;;36.05;23.95;;;31.10;99.90;;;;;;5047917;28;20112;-67
2023/09/12 12:47:59;;;;;;;36.13;23.70;;;31.00;99.90;;;;;;5045655;28;20018;-66
2023/09/12 12:50:26;;;;;;;33.45;20.38;;;31.00;99.90;;;;;;5050087;28;20037;-68
2023/09/12 12:52:53;;;;;;;33.78;22.05;;;30.90;99.90;;;;;;5048443;28;20041;-66
2023/09/12 12:55:21;;;;;;;32.45;20.40;;;30.90;99.90;;;;;;5047790;28;20018;-65
2023/09/12 12:57:49;;;;;;;32.78;19.98;;;30.90;99.90;;;;;;5049756;28;20104;-65
2023/09/12 13:00:18;;;;;;;24.95;18.38;;;30.90;99.90;;;;;;5048724;28;20486;-68
2023/09/12 13:02:45;;;;;;;30.05;19.58;;;30.90;99.90;;;;;;5074022;28;20032;-67
2023/09/12 13:05:24;;;;;;;25.95;18.85;;;30.80;99.90;;;;;;5063770;28;20052;-65
2023/09/12 13:07:51;;;;;;;29.17;18.85;;;30.90;99.90;;;;;;5072167;28;20379;-69